Time;durP1;ratioP1;P1;durP2;ratioP2;P2;SDS_P1;SDS_P2;PMS_P1;PMS_P2;Temp;Humidity;BMP_temperature;BMP_pressure;BME280_temperature;BME280_humidity;BME280_pressure;Samples;Min_cycle;Max_cycle;Signal;HPM_P1;HPM_P2
2022/01/06 00:00:08;;;;;;;30.20;5.38;;;25.50;99.90;;;;;;5066020;28;20024;-65
2022/01/06 00:02:35;;;;;;;26.00;5.80;;;25.60;99.90;;;;;;5072516;28;20035;-64
2022/01/06 00:05:03;;;;;;;27.90;5.75;;;25.70;99.90;;;;;;5069833;28;20020;-66
2022/01/06 00:07:31;;;;;;;21.60;4.53;;;25.60;99.90;;;;;;5047251;28;20045;-64
2022/01/06 00:09:58;;;;;;;31.52;5.88;;;25.40;99.90;;;;;;5072648;28;20020;-63
2022/01/06 00:12:37;;;;;;;33.35;4.72;;;25.40;99.90;;;;;;5072490;28;20116;-63
2022/01/06 00:15:23;;;;;;;20.98;5.20;;;25.50;99.90;;;;;;5068670;28;20056;-64
2022/01/06 00:25:51;;;;;;;21.85;4.55;;;26.10;99.90;;;;;;5071984;28;20107;-64
2022/01/06 00:28:19;;;;;;;34.63;5.95;;;26.10;99.90;;;;;;5071148;28;20037;-64
2022/01/06 00:30:47;;;;;;;26.23;4.60;;;26.00;99.90;;;;;;5070552;28;20024;-64
2022/01/06 00:33:15;;;;;;;25.40;4.38;;;25.50;99.90;;;;;;5068076;28;20020;-64
2022/01/06 00:35:42;;;;;;;27.08;5.32;;;25.50;99.90;;;;;;5071787;28;20419;-64
2022/01/06 00:38:10;;;;;;;29.13;4.60;;;25.60;99.90;;;;;;5069756;28;20025;-64
2022/01/06 00:40:37;;;;;;;31.70;4.70;;;26.30;99.90;;;;;;5064774;28;20036;-63
2022/01/06 00:43:07;;;;;;;30.98;4.47;;;26.50;99.90;;;;;;5064639;28;20456;-64
2022/01/06 00:45:38;;;;;;;25.55;5.38;;;26.40;99.90;;;;;;5064139;28;20028;-63
2022/01/06 00:48:07;;;;;;;33.30;5.40;;;26.40;99.90;;;;;;5047447;28;20105;-64
2022/01/06 00:50:35;;;;;;;29.65;4.47;;;26.50;99.90;;;;;;5061385;28;20024;-64
2022/01/06 00:53:04;;;;;;;33.85;5.03;;;26.40;99.90;;;;;;5063631;28;20074;-64
2022/01/06 00:55:36;;;;;;;27.95;4.38;;;26.20;99.90;;;;;;5046315;28;20036;-64
2022/01/06 00:58:04;;;;;;;22.52;4.05;;;26.30;99.90;;;;;;5068962;28;20028;-63
2022/01/06 01:00:42;;;;;;;22.02;3.35;;;26.10;99.90;;;;;;5064675;28;20698;-63
2022/01/06 01:03:17;;;;;;;19.58;4.30;;;26.30;99.90;;;;;;5036917;28;20035;-63
2022/01/06 01:05:47;;;;;;;21.33;4.72;;;26.70;99.90;;;;;;5067211;28;20048;-63
2022/01/06 01:08:15;;;;;;;21.65;5.20;;;26.40;99.90;;;;;;5067236;28;20028;-63
2022/01/06 01:10:43;;;;;;;16.63;3.65;;;26.40;99.90;;;;;;5068776;28;20044;-63
2022/01/06 01:13:12;;;;;;;22.38;4.50;;;26.50;99.90;;;;;;5063564;28;20025;-63
2022/01/06 01:15:55;;;;;;;22.88;4.35;;;26.20;99.90;;;;;;5064508;28;20059;-63
2022/01/06 01:18:23;;;;;;;21.63;4.05;;;26.10;99.90;;;;;;5053296;28;20068;-63
2022/01/06 01:20:53;;;;;;;19.60;3.72;;;26.20;99.90;;;;;;5072926;28;20035;-63
2022/01/06 01:23:22;;;;;;;24.52;4.60;;;26.40;99.90;;;;;;5063667;28;20061;-63
2022/01/06 01:25:50;;;;;;;21.30;4.47;;;26.40;99.90;;;;;;5061649;28;20520;-64
2022/01/06 01:28:18;;;;;;;27.30;5.45;;;26.30;99.90;;;;;;5063609;28;20116;-64
2022/01/06 01:33:49;;;;;;;25.90;4.28;;;27.00;99.90;;;;;;4972673;28;20515;-64
2022/01/06 01:36:16;;;;;;;21.50;4.10;;;26.70;99.90;;;;;;5047724;28;20094;-65
2022/01/06 01:38:44;;;;;;;27.52;4.68;;;26.70;99.90;;;;;;5066944;28;20029;-64
2022/01/06 01:41:12;;;;;;;29.05;4.35;;;26.60;99.90;;;;;;5066914;28;20464;-64
2022/01/06 01:43:40;;;;;;;19.40;4.00;;;26.60;99.90;;;;;;5069531;28;20115;-65
2022/01/06 01:46:11;;;;;;;24.35;4.90;;;26.40;99.90;;;;;;5046558;28;20055;-66
2022/01/06 01:48:44;;;;;;;21.80;3.95;;;26.60;99.90;;;;;;5064344;28;20031;-66
2022/01/06 01:51:11;;;;;;;35.05;5.03;;;26.70;99.90;;;;;;5062048;28;20099;-66
2022/01/06 01:53:39;;;;;;;21.83;4.50;;;26.40;99.90;;;;;;5063365;28;20024;-66
2022/01/06 01:56:07;;;;;;;26.10;4.53;;;26.00;99.90;;;;;;5060578;28;20021;-66
2022/01/06 01:58:36;;;;;;;26.13;4.85;;;25.90;99.90;;;;;;5069567;28;20123;-66
2022/01/06 02:01:04;;;;;;;20.55;4.32;;;25.80;99.90;;;;;;5069716;28;20021;-65
2022/01/06 02:03:32;;;;;;;24.25;5.68;;;25.70;99.90;;;;;;5074630;28;20361;-66
2022/01/06 02:05:59;;;;;;;27.83;5.65;;;25.50;99.90;;;;;;5070537;28;20121;-65
2022/01/06 02:08:27;;;;;;;26.80;4.40;;;25.40;99.90;;;;;;5068636;28;20041;-65
2022/01/06 02:10:54;;;;;;;22.30;4.40;;;25.20;99.90;;;;;;5073846;28;20029;-66
2022/01/06 02:13:28;;;;;;;21.60;4.47;;;25.20;99.90;;;;;;5071734;28;20517;-66
2022/01/06 02:16:00;;;;;;;29.50;4.07;;;25.40;99.90;;;;;;5075972;28;20520;-66
2022/01/06 02:18:28;;;;;;;24.88;4.13;;;25.70;99.90;;;;;;5063736;28;20043;-65
2022/01/06 02:20:56;;;;;;;29.88;6.00;;;26.10;99.90;;;;;;5070553;28;20024;-65
2022/01/06 02:23:23;;;;;;;25.25;5.15;;;26.50;99.90;;;;;;5071933;28;20384;-66
2022/01/06 02:25:51;;;;;;;21.73;3.63;;;26.50;99.90;;;;;;5070858;28;20032;-66
2022/01/06 02:28:25;;;;;;;21.60;3.53;;;26.60;99.90;;;;;;5062738;28;20114;-66
2022/01/06 02:30:54;;;;;;;22.15;4.35;;;26.50;99.90;;;;;;5073885;28;20090;-65
2022/01/06 02:33:23;;;;;;;23.50;4.13;;;26.00;99.90;;;;;;5073857;28;20031;-65
2022/01/06 02:35:54;;;;;;;20.23;4.10;;;26.10;99.90;;;;;;5074558;28;20491;-66
2022/01/06 02:38:23;;;;;;;26.42;5.35;;;26.10;99.90;;;;;;5070489;28;20016;-65
2022/01/06 02:40:51;;;;;;;24.90;3.50;;;26.20;99.90;;;;;;5075221;28;20047;-66
2022/01/06 02:43:22;;;;;;;21.35;3.83;;;26.10;99.90;;;;;;5072736;28;20028;-66
2022/01/06 02:45:50;;;;;;;29.20;4.35;;;26.00;99.90;;;;;;5071413;28;20027;-65
2022/01/06 02:48:17;;;;;;;26.85;5.43;;;25.80;99.90;;;;;;5072071;28;20032;-65
2022/01/06 02:50:47;;;;;;;27.73;4.90;;;25.60;99.90;;;;;;5067835;28;20067;-65
2022/01/06 02:53:19;;;;;;;24.58;4.43;;;25.70;99.90;;;;;;5063806;28;20377;-65
2022/01/06 02:55:53;;;;;;;25.33;4.40;;;25.70;99.90;;;;;;5060467;28;20095;-65
2022/01/06 02:58:21;;;;;;;;;;;26.10;99.90;;;;;;5055236;28;20040;-66
2022/01/06 03:00:52;;;;;;;24.35;5.20;;;26.20;99.90;;;;;;5074223;28;20026;-66
2022/01/06 03:03:19;;;;;;;24.13;3.83;;;26.10;99.90;;;;;;5062584;28;20058;-65
2022/01/06 03:05:47;;;;;;;26.00;4.45;;;26.00;99.90;;;;;;5070680;28;20087;-66
2022/01/06 03:08:14;;;;;;;21.05;4.25;;;25.80;99.90;;;;;;5066880;28;20033;-65
2022/01/06 03:10:43;;;;;;;19.13;3.78;;;25.60;99.90;;;;;;5070063;28;20031;-65
2022/01/06 03:13:11;;;;;;;31.90;5.03;;;25.70;99.90;;;;;;5068862;28;20306;-65
2022/01/06 03:15:38;;;;;;;23.00;4.65;;;25.80;99.90;;;;;;5064832;28;20499;-64
2022/01/06 03:18:06;;;;;;;27.70;4.40;;;26.10;99.90;;;;;;5063536;28;20017;-65
2022/01/06 03:20:34;;;;;;;24.00;4.53;;;26.10;99.90;;;;;;5070118;28;20025;-66
2022/01/06 03:23:01;;;;;;;28.60;4.80;;;26.00;99.90;;;;;;5068990;28;20028;-66
2022/01/06 03:25:29;;;;;;;26.42;5.60;;;26.00;99.90;;;;;;5041966;28;20041;-66
2022/01/06 03:27:56;;;;;;;23.63;4.22;;;25.90;99.90;;;;;;5071432;28;20476;-66
2022/01/06 03:30:24;;;;;;;22.02;4.40;;;26.00;99.90;;;;;;5070167;28;20024;-67
2022/01/06 03:32:52;;;;;;;21.92;4.18;;;25.80;99.90;;;;;;5064460;28;20020;-66
2022/01/06 03:35:25;;;;;;;25.30;5.07;;;25.70;99.90;;;;;;5072627;28;20032;-65
2022/01/06 03:37:53;;;;;;;22.15;4.32;;;26.10;99.90;;;;;;5067654;28;20114;-65
2022/01/06 03:40:20;;;;;;;24.83;4.28;;;26.10;99.90;;;;;;5059276;28;20041;-66
2022/01/06 03:42:48;;;;;;;22.95;5.43;;;26.40;99.90;;;;;;5062755;28;20032;-66
2022/01/06 03:45:18;;;;;;;25.70;4.93;;;26.70;99.90;;;;;;5076114;28;20024;-65
2022/01/06 03:47:46;;;;;;;39.67;6.45;;;26.60;99.90;;;;;;5054406;28;20032;-66
2022/01/06 03:50:16;;;;;;;25.25;4.45;;;26.50;99.90;;;;;;5078406;28;20021;-65
2022/01/06 03:52:44;;;;;;;28.20;5.65;;;26.40;99.90;;;;;;5074571;28;20021;-65
2022/01/06 03:55:15;;;;;;;25.98;5.50;;;26.30;99.90;;;;;;5067117;28;20036;-66
2022/01/06 03:57:43;;;;;;;22.88;3.75;;;26.40;99.90;;;;;;5070756;28;20078;-65
2022/01/06 04:00:14;;;;;;;28.23;4.85;;;26.40;99.90;;;;;;5074547;28;20036;-65
2022/01/06 04:02:43;;;;;;;25.95;4.60;;;26.40;99.90;;;;;;5066317;28;20037;-64
2022/01/06 04:05:10;;;;;;;21.63;3.97;;;26.50;99.90;;;;;;5071854;28;20020;-65
2022/01/06 04:07:39;;;;;;;23.85;4.07;;;26.40;99.90;;;;;;5069992;28;20068;-65
2022/01/06 04:10:09;;;;;;;25.25;4.70;;;26.60;99.90;;;;;;5053392;28;20024;-64
2022/01/06 04:12:37;;;;;;;21.40;3.97;;;26.50;99.90;;;;;;5054511;28;20485;-64
2022/01/06 04:15:11;;;;;;;20.65;4.22;;;26.30;99.90;;;;;;5066708;28;20025;-65
2022/01/06 04:17:39;;;;;;;26.85;4.80;;;26.30;99.90;;;;;;5072919;28;20029;-64
2022/01/06 04:20:07;;;;;;;19.15;3.72;;;26.40;99.90;;;;;;5069891;28;20604;-64
2022/01/06 04:22:36;;;;;;;20.63;4.28;;;26.20;99.90;;;;;;5058053;28;20481;-65
2022/01/06 04:25:05;;;;;;;21.95;4.90;;;26.20;99.90;;;;;;5071244;28;20056;-65
2022/01/06 04:27:33;;;;;;;22.30;4.32;;;26.20;99.90;;;;;;5062123;28;20119;-65
2022/01/06 04:30:01;;;;;;;22.80;3.65;;;26.20;99.90;;;;;;5063500;28;20025;-65
2022/01/06 04:32:28;;;;;;;23.05;4.05;;;26.40;99.90;;;;;;5072565;28;20031;-65
2022/01/06 04:34:55;;;;;;;20.15;4.28;;;26.30;99.90;;;;;;5058971;28;20020;-65
2022/01/06 04:37:24;;;;;;;28.80;4.97;;;26.00;99.90;;;;;;5064435;28;20063;-65
2022/01/06 04:39:51;;;;;;;28.83;4.43;;;25.80;99.90;;;;;;5069556;28;20598;-64
2022/01/06 04:42:19;;;;;;;24.58;4.20;;;25.70;99.90;;;;;;5060614;28;20025;-65
2022/01/06 04:44:46;;;;;;;25.27;4.70;;;25.70;99.90;;;;;;5069542;28;20100;-65
2022/01/06 04:47:13;;;;;;;22.25;4.85;;;25.70;99.90;;;;;;5069114;28;20025;-65
2022/01/06 04:49:40;;;;;;;31.33;4.60;;;25.80;99.90;;;;;;5071095;28;20031;-66
2022/01/06 04:52:08;;;;;;;21.73;4.60;;;26.10;99.90;;;;;;5067103;28;20033;-66
2022/01/06 04:54:35;;;;;;;24.10;4.30;;;26.40;99.90;;;;;;5069490;28;20428;-65
2022/01/06 04:57:02;;;;;;;23.75;4.18;;;26.20;99.90;;;;;;5065649;28;20037;-66
2022/01/06 04:59:30;;;;;;;21.63;3.95;;;26.00;99.90;;;;;;5052301;28;20492;-65
2022/01/06 05:01:57;;;;;;;24.25;4.43;;;25.80;99.90;;;;;;5067876;28;20382;-65
2022/01/06 05:04:24;;;;;;;21.55;4.28;;;25.70;99.90;;;;;;5064983;28;20048;-65
2022/01/06 05:06:52;;;;;;;23.05;4.43;;;25.70;99.90;;;;;;5067103;28;20627;-65
2022/01/06 05:09:19;;;;;;;30.00;4.43;;;25.60;99.90;;;;;;5067375;28;20484;-65
2022/01/06 05:11:46;;;;;;;22.25;4.28;;;25.40;99.90;;;;;;5067776;28;20025;-64
2022/01/06 05:14:14;;;;;;;27.00;5.07;;;25.30;99.90;;;;;;5069443;28;20070;-65
2022/01/06 05:16:41;;;;;;;23.92;4.35;;;25.20;99.90;;;;;;5066248;28;20384;-65
2022/01/06 05:19:08;;;;;;;29.88;4.15;;;25.40;99.90;;;;;;5068328;28;20036;-64
2022/01/06 05:21:36;;;;;;;26.92;4.00;;;25.50;99.90;;;;;;5067206;28;20016;-64
2022/01/06 05:24:11;;;;;;;25.60;5.07;;;25.50;99.90;;;;;;5067292;28;20036;-64
2022/01/06 05:26:39;;;;;;;24.77;4.70;;;25.40;99.90;;;;;;5069791;28;20040;-64
2022/01/06 05:29:08;;;;;;;27.17;5.05;;;25.40;99.90;;;;;;5066713;28;20606;-64
2022/01/06 05:31:36;;;;;;;29.60;5.85;;;25.30;99.90;;;;;;5065919;28;20037;-64
2022/01/06 05:34:04;;;;;;;28.00;4.57;;;25.40;99.90;;;;;;5066498;28;20028;-65
2022/01/06 05:36:32;;;;;;;26.17;4.68;;;25.50;99.90;;;;;;5066675;28;20055;-65
2022/01/06 05:39:00;;;;;;;21.30;3.67;;;25.40;99.90;;;;;;5068779;28;20021;-65
2022/01/06 05:41:27;;;;;;;29.35;4.93;;;25.40;99.90;;;;;;5063623;28;20031;-65
2022/01/06 05:43:55;;;;;;;25.83;5.38;;;25.50;99.90;;;;;;5066642;28;20020;-64
2022/01/06 05:46:22;;;;;;;24.27;5.13;;;25.60;99.90;;;;;;5068011;28;20032;-64
2022/01/06 05:48:50;;;;;;;30.50;5.03;;;25.50;99.90;;;;;;5068173;28;20020;-64
2022/01/06 05:51:17;;;;;;;29.88;5.50;;;25.40;99.90;;;;;;5063629;28;20501;-63
2022/01/06 05:53:45;;;;;;;28.33;4.70;;;25.30;99.90;;;;;;5068609;28;20021;-64
2022/01/06 05:56:12;;;;;;;26.42;4.95;;;25.20;99.90;;;;;;5057505;28;20063;-63
2022/01/06 05:58:42;;;;;;;29.08;5.45;;;25.10;99.90;;;;;;5054474;28;20108;-64
2022/01/06 06:01:09;;;;;;;26.02;4.93;;;25.20;99.90;;;;;;5063495;28;20477;-63
2022/01/06 06:03:37;;;;;;;29.13;5.35;;;25.30;99.90;;;;;;5063579;28;20542;-63
2022/01/06 06:06:04;;;;;;;26.60;5.45;;;25.30;99.90;;;;;;5063384;28;20044;-63
2022/01/06 06:08:31;;;;;;;30.17;5.03;;;25.00;99.90;;;;;;5061687;28;20565;-64
2022/01/06 06:10:59;;;;;;;22.05;4.65;;;25.10;99.90;;;;;;5064588;28;20377;-63
2022/01/06 06:13:26;;;;;;;29.10;5.03;;;25.00;99.90;;;;;;5050338;28;20033;-63
2022/01/06 06:15:53;;;;;;;28.23;4.85;;;25.00;99.90;;;;;;5066834;28;20389;-63
2022/01/06 06:18:21;;;;;;;33.75;5.68;;;25.00;99.90;;;;;;5063842;28;20025;-63
2022/01/06 06:20:48;;;;;;;30.38;5.55;;;25.00;99.90;;;;;;5069216;28;20366;-63
2022/01/06 06:23:15;;;;;;;32.42;5.45;;;25.10;99.90;;;;;;5049149;28;20025;-64
2022/01/06 06:25:42;;;;;;;24.52;4.65;;;25.10;99.90;;;;;;5071992;28;20032;-66
2022/01/06 06:28:10;;;;;;;30.13;4.85;;;24.90;99.90;;;;;;5068923;28;20056;-65
2022/01/06 06:30:37;;;;;;;25.88;4.47;;;24.90;99.90;;;;;;5058588;28;20044;-65
2022/01/06 06:33:04;;;;;;;30.80;5.28;;;24.90;99.90;;;;;;5065699;28;20630;-65
2022/01/06 06:35:32;;;;;;;23.10;4.60;;;25.00;99.90;;;;;;5062392;28;20029;-65
2022/01/06 06:37:59;;;;;;;25.15;4.50;;;25.00;99.90;;;;;;5066113;28;20081;-65
2022/01/06 06:40:27;;;;;;;20.45;3.88;;;25.20;99.90;;;;;;5052067;28;20108;-65
2022/01/06 06:42:54;;;;;;;26.63;4.57;;;25.10;99.90;;;;;;5040323;28;20493;-66
2022/01/06 06:45:23;;;;;;;25.30;4.95;;;25.20;99.90;;;;;;5055521;28;20036;-65
2022/01/06 06:47:51;;;;;;;29.67;5.70;;;25.70;99.90;;;;;;5068152;28;20037;-64
2022/01/06 06:50:21;;;;;;;28.15;5.13;;;25.90;99.90;;;;;;5071210;28;20029;-65
2022/01/06 06:52:48;;;;;;;30.73;5.43;;;26.10;99.90;;;;;;5062338;28;20470;-65
2022/01/06 06:55:16;;;;;;;24.40;4.93;;;25.80;99.90;;;;;;5053159;28;20013;-66
2022/01/06 06:57:43;;;;;;;27.58;5.60;;;25.20;99.90;;;;;;5046971;28;20040;-65
2022/01/06 07:00:11;;;;;;;28.05;4.97;;;25.20;99.90;;;;;;5064030;28;20055;-65
2022/01/06 07:02:39;;;;;;;29.92;5.10;;;25.00;99.90;;;;;;5073910;28;20111;-65
2022/01/06 07:05:07;;;;;;;30.95;5.25;;;25.00;99.90;;;;;;5071009;28;20110;-66
2022/01/06 07:07:34;;;;;;;26.15;4.25;;;25.00;99.90;;;;;;5071729;28;20036;-65
2022/01/06 07:10:04;;;;;;;27.70;4.88;;;24.90;99.90;;;;;;5050825;28;20028;-65
2022/01/06 07:12:32;;;;;;;30.65;5.93;;;24.70;99.90;;;;;;5069670;28;20039;-65
2022/01/06 07:15:02;;;;;;;29.77;5.38;;;24.70;99.90;;;;;;5066382;28;20029;-65
2022/01/06 07:17:29;;;;;;;31.25;6.05;;;24.70;99.90;;;;;;5069490;28;20052;-65
2022/01/06 07:19:56;;;;;;;30.80;5.13;;;24.70;99.90;;;;;;5071552;28;20480;-65
2022/01/06 07:22:24;;;;;;;29.33;5.63;;;24.70;99.90;;;;;;5070991;28;20385;-65
2022/01/06 07:24:51;;;;;;;22.40;3.58;;;24.70;99.90;;;;;;5073920;28;20035;-65
2022/01/06 07:27:18;;;;;;;22.67;4.70;;;24.70;99.90;;;;;;5071142;28;20036;-65
2022/01/06 07:29:46;;;;;;;30.48;5.68;;;24.90;99.90;;;;;;5067934;28;20052;-64
2022/01/06 07:32:14;;;;;;;21.23;5.13;;;24.90;99.90;;;;;;5062694;28;20385;-65
2022/01/06 07:34:41;;;;;;;26.42;4.55;;;24.90;99.90;;;;;;5067114;28;20055;-64
2022/01/06 07:37:08;;;;;;;29.00;5.95;;;25.00;99.90;;;;;;5062920;28;20601;-64
2022/01/06 07:39:36;;;;;;;23.85;4.90;;;24.90;99.90;;;;;;5070299;28;20063;-64
2022/01/06 07:42:05;;;;;;;34.47;5.72;;;24.90;99.90;;;;;;5064668;28;20419;-65
2022/01/06 07:44:32;;;;;;;29.00;5.53;;;24.90;99.90;;;;;;5045278;28;20028;-65
2022/01/06 07:47:00;;;;;;;28.50;6.38;;;24.80;99.90;;;;;;5041072;28;20064;-65
2022/01/06 07:49:28;;;;;;;24.58;4.32;;;24.70;99.90;;;;;;5066348;28;20024;-64
2022/01/06 07:51:55;;;;;;;22.25;3.67;;;24.70;99.90;;;;;;5051320;28;20028;-64
2022/01/06 07:54:23;;;;;;;32.15;6.15;;;24.60;99.90;;;;;;5061667;28;21000;-65
2022/01/06 07:56:50;;;;;;;33.80;6.78;;;24.60;99.90;;;;;;5064863;28;20017;-64
2022/01/06 07:59:17;;;;;;;33.10;6.25;;;24.60;99.90;;;;;;5060758;28;20032;-65
2022/01/06 08:01:45;;;;;;;27.63;4.57;;;24.60;99.90;;;;;;5072743;28;20028;-64
2022/01/06 08:04:12;;;;;;;29.90;5.07;;;24.50;99.90;;;;;;5068167;28;20025;-65
2022/01/06 08:06:39;;;;;;;28.10;4.63;;;24.50;99.90;;;;;;5061295;28;20067;-65
2022/01/06 08:09:06;;;;;;;27.15;4.88;;;24.50;99.90;;;;;;5052812;28;20029;-65
2022/01/06 08:11:34;;;;;;;29.40;5.88;;;24.40;99.90;;;;;;5071385;28;20055;-64
2022/01/06 08:14:01;;;;;;;33.25;5.15;;;24.40;99.90;;;;;;5067481;28;20028;-65
2022/01/06 08:16:28;;;;;;;25.58;3.72;;;24.40;99.90;;;;;;5071103;28;20055;-65
2022/01/06 08:18:56;;;;;;;29.88;5.05;;;24.40;99.90;;;;;;5072070;28;20021;-65
2022/01/06 08:21:23;;;;;;;35.50;6.53;;;24.40;99.90;;;;;;5069644;28;20040;-65
2022/01/06 08:23:50;;;;;;;36.40;6.03;;;24.30;99.90;;;;;;5070265;28;20519;-65
2022/01/06 08:26:18;;;;;;;28.83;5.32;;;24.20;99.90;;;;;;5071581;28;20116;-64
2022/01/06 08:28:48;;;;;;;32.67;5.97;;;24.20;99.90;;;;;;5071799;28;20022;-65
2022/01/06 08:31:18;;;;;;;37.42;6.68;;;24.30;99.90;;;;;;5070649;28;20199;-65
2022/01/06 08:33:47;;;;;;;32.08;5.43;;;24.20;99.90;;;;;;5059481;28;20047;-65
2022/01/06 08:36:15;;;;;;;23.42;4.30;;;24.20;99.90;;;;;;5072788;28;20029;-65
2022/01/06 08:38:43;;;;;;;28.15;4.70;;;24.20;99.90;;;;;;5071533;28;20021;-65
2022/01/06 08:41:11;;;;;;;24.10;5.10;;;24.20;99.90;;;;;;5071177;28;20031;-65
2022/01/06 08:43:38;;;;;;;38.78;5.25;;;24.10;99.90;;;;;;5059582;28;20012;-65
2022/01/06 08:46:05;;;;;;;30.88;5.18;;;24.20;99.90;;;;;;5069325;28;20024;-65
2022/01/06 08:48:33;;;;;;;24.23;4.95;;;24.20;99.90;;;;;;5071069;28;20082;-65
2022/01/06 08:51:01;;;;;;;26.90;5.32;;;24.20;99.90;;;;;;5070300;28;20064;-64
2022/01/06 08:53:29;;;;;;;25.48;5.00;;;24.20;99.90;;;;;;5071451;28;20032;-65
2022/01/06 08:55:56;;;;;;;33.88;5.72;;;24.10;99.90;;;;;;5071575;28;20090;-64
2022/01/06 08:58:23;;;;;;;39.83;5.85;;;24.10;99.90;;;;;;5067101;28;20028;-65
2022/01/06 09:00:50;;;;;;;26.23;4.80;;;24.10;99.90;;;;;;5069453;28;20409;-65
2022/01/06 09:03:18;;;;;;;23.83;4.78;;;24.10;99.90;;;;;;5053913;28;20067;-65
2022/01/06 09:05:45;;;;;;;23.13;4.60;;;24.10;99.90;;;;;;5067806;28;20496;-65
2022/01/06 09:08:13;;;;;;;30.48;5.28;;;24.10;99.90;;;;;;5071424;28;20480;-64
2022/01/06 09:10:40;;;;;;;28.92;5.35;;;24.10;99.90;;;;;;5061716;28;20028;-65
2022/01/06 09:13:08;;;;;;;27.23;5.25;;;24.10;99.90;;;;;;5070865;28;20111;-64
2022/01/06 09:15:39;;;;;;;29.83;6.70;;;23.90;99.90;;;;;;5057204;28;20473;-65
2022/01/06 09:18:07;;;;;;;25.38;5.35;;;24.00;99.90;;;;;;5063802;28;20485;-64
2022/01/06 09:20:34;;;;;;;32.42;6.15;;;24.00;99.90;;;;;;5064669;28;20041;-64
2022/01/06 09:23:02;;;;;;;23.88;3.97;;;24.00;99.90;;;;;;5066941;28;20530;-64
2022/01/06 09:25:29;;;;;;;30.23;5.05;;;24.00;99.90;;;;;;5066490;28;20118;-65
2022/01/06 09:27:57;;;;;;;31.52;5.20;;;23.90;99.90;;;;;;5051351;28;20477;-65
2022/01/06 09:30:25;;;;;;;28.85;5.63;;;23.90;99.90;;;;;;5063898;28;20083;-64
2022/01/06 09:32:56;;;;;;;36.17;5.20;;;23.90;99.90;;;;;;5056122;28;20016;-64
2022/01/06 09:35:23;;;;;;;29.85;5.75;;;23.90;99.90;;;;;;5056016;28;20041;-65
2022/01/06 09:37:51;;;;;;;25.15;5.28;;;23.90;99.90;;;;;;5053644;28;20032;-64
2022/01/06 09:40:18;;;;;;;30.08;5.88;;;23.70;99.90;;;;;;5071436;28;20494;-65
2022/01/06 09:42:46;;;;;;;31.58;5.20;;;23.60;99.90;;;;;;5071735;28;20025;-65
2022/01/06 09:45:15;;;;;;;33.42;7.45;;;23.40;99.90;;;;;;5068126;28;20114;-65
2022/01/06 09:47:43;;;;;;;26.73;5.43;;;23.40;99.90;;;;;;5072223;28;20032;-64
2022/01/06 09:50:13;;;;;;;29.85;5.85;;;23.40;99.90;;;;;;5052660;28;20108;-65
2022/01/06 09:52:40;;;;;;;43.80;6.65;;;23.40;99.90;;;;;;5072085;28;20029;-64
2022/01/06 09:55:08;;;;;;;40.13;6.63;;;23.40;99.90;;;;;;5071756;28;20417;-64
2022/01/06 09:57:36;;;;;;;32.65;5.18;;;23.30;99.90;;;;;;5070859;28;20033;-65
2022/01/06 10:00:08;;;;;;;26.95;4.07;;;23.30;99.90;;;;;;5051241;28;20070;-65
2022/01/06 10:02:39;;;;;;;30.23;4.43;;;23.20;99.90;;;;;;5054548;28;20025;-65
2022/01/06 10:05:07;;;;;;;31.73;5.57;;;23.30;99.90;;;;;;5068617;28;20096;-64
2022/01/06 10:07:39;;;;;;;26.25;4.45;;;23.30;99.90;;;;;;5071984;28;20478;-64
2022/01/06 10:10:12;;;;;;;32.33;4.72;;;23.30;99.90;;;;;;5072323;28;20092;-65
2022/01/06 10:12:41;;;;;;;29.17;3.93;;;23.30;99.90;;;;;;5071887;28;20024;-64
2022/01/06 10:15:23;;;;;;;28.83;4.65;;;23.30;99.90;;;;;;5068324;28;20345;-64
2022/01/06 10:17:51;;;;;;;29.67;4.43;;;23.30;99.90;;;;;;5053962;28;20477;-64
2022/01/06 10:20:21;;;;;;;31.02;5.50;;;23.30;99.90;;;;;;5069106;28;20426;-65
2022/01/06 10:22:51;;;;;;;26.05;5.47;;;23.30;99.90;;;;;;5057648;28;20025;-65
2022/01/06 10:25:21;;;;;;;26.25;5.15;;;23.30;99.90;;;;;;5071452;28;20448;-65
2022/01/06 10:27:49;;;;;;;29.25;4.82;;;23.40;99.90;;;;;;5071910;28;20028;-64
2022/01/06 10:30:47;;;;;;;27.90;5.57;;;23.40;99.90;;;;;;5068774;28;20023;-64
2022/01/06 10:33:33;;;;;;;27.55;5.00;;;23.40;99.90;;;;;;5056757;28;20125;-65
2022/01/06 10:36:10;;;;;;;33.55;4.85;;;23.40;99.90;;;;;;5075442;28;20020;-66
2022/01/06 10:38:38;;;;;;;29.50;5.32;;;23.40;99.90;;;;;;5051921;28;20437;-66
2022/01/06 10:41:17;;;;;;;29.05;4.88;;;23.40;99.90;;;;;;5075862;28;20481;-65
2022/01/06 10:43:55;;;;;;;36.05;5.72;;;23.40;99.90;;;;;;5075159;28;20469;-65
2022/01/06 10:46:33;;;;;;;24.63;5.68;;;23.40;99.90;;;;;;5041909;28;20044;-65
2022/01/06 10:49:04;;;;;;;28.92;4.65;;;23.40;99.90;;;;;;5060824;28;20099;-66
2022/01/06 10:51:41;;;;;;;24.55;4.65;;;23.40;99.90;;;;;;5063868;28;20020;-65
2022/01/06 10:54:21;;;;;;;24.35;3.90;;;23.40;99.90;;;;;;5073484;28;20021;-66
2022/01/06 10:56:58;;;;;;;26.27;3.95;;;23.40;99.90;;;;;;5070434;28;20025;-65
2022/01/06 10:59:31;;;;;;;27.33;5.10;;;23.40;99.90;;;;;;5074963;28;20032;-65
2022/01/06 11:01:58;;;;;;;32.38;6.63;;;23.50;99.90;;;;;;5062477;28;20391;-66
2022/01/06 11:04:26;;;;;;;32.38;5.20;;;23.40;99.90;;;;;;5072552;28;20029;-66
2022/01/06 11:06:53;;;;;;;26.05;4.28;;;23.40;99.90;;;;;;5067720;28;20048;-66
2022/01/06 11:09:21;;;;;;;28.10;4.97;;;23.40;99.90;;;;;;5069606;28;20031;-66
2022/01/06 11:14:21;;;;;;;23.80;4.45;;;23.40;99.90;;;;;;5071891;28;20033;-65
2022/01/06 11:16:48;;;;;;;32.00;5.72;;;23.50;99.90;;;;;;5071018;28;20033;-65
2022/01/06 11:19:16;;;;;;;27.90;4.50;;;23.40;99.90;;;;;;5072285;28;20028;-65
2022/01/06 11:21:47;;;;;;;25.38;5.22;;;23.40;99.90;;;;;;5073902;28;20029;-65
2022/01/06 11:24:16;;;;;;;22.95;4.07;;;23.40;99.90;;;;;;5072895;28;20023;-64
2022/01/06 11:26:56;;;;;;;30.52;4.70;;;23.40;99.90;;;;;;5074335;28;20036;-64
2022/01/06 11:29:41;;;;;;;26.55;4.75;;;23.40;99.90;;;;;;5069493;28;20040;-65
2022/01/06 11:32:22;;;;;;;25.55;4.07;;;23.40;99.90;;;;;;5070621;28;20497;-65
2022/01/06 11:35:11;;;;;;;34.47;6.28;;;23.40;99.90;;;;;;5072793;28;20023;-65
2022/01/06 11:37:52;;;;;;;29.77;5.40;;;23.40;99.90;;;;;;5072217;28;20024;-64
2022/01/06 11:40:35;;;;;;;33.47;4.97;;;23.40;99.90;;;;;;5077312;28;20035;-65
2022/01/06 11:43:02;;;;;;;27.15;4.70;;;23.40;99.90;;;;;;5062974;28;20493;-65
2022/01/06 11:45:30;;;;;;;21.00;4.53;;;23.40;99.90;;;;;;5072918;28;20032;-65
2022/01/06 11:48:07;;;;;;;30.27;6.18;;;23.40;99.90;;;;;;5069811;28;20036;-65
2022/01/06 11:50:44;;;;;;;32.75;5.88;;;23.40;99.90;;;;;;5073312;28;20063;-65
2022/01/06 11:53:11;;;;;;;26.13;4.47;;;23.40;99.90;;;;;;5073505;28;20036;-65
2022/01/06 11:55:41;;;;;;;25.25;5.47;;;23.40;99.90;;;;;;5063925;28;20136;-65
2022/01/06 11:58:21;;;;;;;26.73;5.85;;;23.40;99.90;;;;;;5073847;28;20071;-65
2022/01/06 12:01:07;;;;;;;32.35;6.85;;;23.40;99.90;;;;;;5072662;28;20044;-65
2022/01/06 12:03:40;;;;;;;37.38;5.72;;;23.40;99.90;;;;;;5060496;28;20058;-65
2022/01/06 12:06:09;;;;;;;26.27;3.85;;;23.40;99.90;;;;;;5069174;28;20106;-65
2022/01/06 12:08:43;;;;;;;29.27;5.78;;;23.40;99.90;;;;;;5031940;28;20033;-66
2022/01/06 12:11:20;;;;;;;;;;;23.40;99.90;;;;;;5063179;28;20091;-66
2022/01/06 12:13:50;;;;;;;30.20;5.13;;;23.40;99.90;;;;;;5069477;28;20391;-65
2022/01/06 12:16:29;;;;;;;35.95;5.55;;;23.40;99.90;;;;;;5072706;28;20750;-65
2022/01/06 12:18:57;;;;;;;28.65;5.50;;;23.40;99.90;;;;;;5071727;28;20047;-64
2022/01/06 12:21:25;;;;;;;29.42;5.15;;;23.40;99.90;;;;;;5067743;28;20032;-64
2022/01/06 12:24:04;;;;;;;35.00;5.88;;;23.40;99.90;;;;;;5065455;28;20096;-64
2022/01/06 12:26:34;;;;;;;33.75;5.80;;;23.30;99.90;;;;;;5060385;28;20044;-64
2022/01/06 12:29:04;;;;;;;28.48;4.85;;;23.30;99.90;;;;;;5048438;28;20039;-64
2022/01/06 12:31:33;;;;;;;28.58;5.45;;;23.30;99.90;;;;;;5048889;28;20037;-64
2022/01/06 12:34:02;;;;;;;33.10;5.88;;;23.30;99.90;;;;;;5049059;28;20021;-64
2022/01/06 12:36:36;;;;;;;25.08;5.47;;;23.30;99.90;;;;;;5048052;28;20047;-64
2022/01/06 12:39:09;;;;;;;29.20;4.57;;;23.40;99.90;;;;;;5064141;28;20031;-65
2022/01/06 12:41:37;;;;;;;36.93;5.20;;;23.30;99.90;;;;;;5063809;28;20052;-65
2022/01/06 12:44:05;;;;;;;30.27;4.28;;;23.40;99.90;;;;;;5073075;28;20103;-65
2022/01/06 12:46:37;;;;;;;34.03;5.47;;;23.40;99.90;;;;;;5069396;28;20036;-65
2022/01/06 12:49:09;;;;;;;27.50;4.70;;;23.40;99.90;;;;;;5071969;28;20013;-64
2022/01/06 12:51:45;;;;;;;33.67;5.63;;;23.40;99.90;;;;;;5054683;28;20048;-65
2022/01/06 12:54:15;;;;;;;31.80;5.68;;;23.40;99.90;;;;;;5071701;28;20390;-65
2022/01/06 12:56:53;;;;;;;37.92;5.55;;;23.40;99.90;;;;;;5056088;28;20028;-65
2022/01/06 12:59:29;;;;;;;40.20;6.40;;;23.40;99.90;;;;;;5068917;28;20027;-65
2022/01/06 13:01:59;;;;;;;39.03;6.07;;;23.40;99.90;;;;;;5069225;28;20146;-65